Terminal Aerodrome Forecast
Issued by NWS

Home | Current Version | Previous Version | Text Only | Print | Product List | Glossary On
Versions: 1 2 3 4 5 6 7 8 9 10 11 12 13
000
FTUS43 KFGF 181700
TAFDVL
TAF
KDVL 181720Z 1818/1918 13023G30KT P6SM BKN060
     FM190000 15024KT P6SM -SHRA BKN040
     FM190600 18018KT P6SM OVC025
     FM191200 25015KT P6SM SKC
      AMD LTD TO CLD VIS AND WIND=

USA.gov is the U.S. government's official web portal to all federal, state and local government web resources and services.